Time;durP1;ratioP1;P1;durP2;ratioP2;P2;SDS_P1;SDS_P2;PMS_P1;PMS_P2;Temp;Humidity;BMP_temperature;BMP_pressure;BME280_temperature;BME280_humidity;BME280_pressure;Samples;Min_cycle;Max_cycle;Signal;HPM_P1;HPM_P2
2022/07/16 00:01:23;;;;;;;3.10;2.80;;;29.10;52.20;;;;;;4922214;29;20465;-70
2022/07/16 00:03:55;;;;;;;2.80;2.60;;;29.10;52.30;;;;;;4924289;29;20449;-71
2022/07/16 00:06:25;;;;;;;3.60;3.17;;;29.10;52.30;;;;;;4927633;29;20477;-71
2022/07/16 00:08:54;;;;;;;3.10;2.90;;;29.10;52.30;;;;;;4928084;29;20511;-74
2022/07/16 00:11:23;;;;;;;2.93;2.73;;;29.10;52.10;;;;;;4930492;29;20865;-71
2022/07/16 00:13:51;;;;;;;3.00;2.80;;;29.00;52.10;;;;;;4925256;29;20455;-71
2022/07/16 00:16:20;;;;;;;3.27;2.47;;;29.00;52.10;;;;;;4926707;29;20454;-71
2022/07/16 00:21:35;;;;;;;2.43;2.33;;;29.00;51.90;;;;;;4918242;29;20526;-71
2022/07/16 00:24:06;;;;;;;3.03;2.83;;;29.00;52.10;;;;;;4926481;29;20482;-71
2022/07/16 00:26:35;;;;;;;2.80;2.60;;;29.00;51.50;;;;;;4928023;29;20774;-71
2022/07/16 00:29:04;;;;;;;2.70;2.50;;;28.90;51.90;;;;;;4930322;29;20471;-73
2022/07/16 00:31:32;;;;;;;3.17;2.97;;;28.90;52.20;;;;;;4934603;29;20453;-71
2022/07/16 00:34:00;;;;;;;3.40;3.17;;;28.90;52.20;;;;;;4935485;29;20427;-70
2022/07/16 00:36:28;;;;;;;2.83;2.63;;;28.90;52.10;;;;;;4935647;29;20454;-71
2022/07/16 00:38:58;;;;;;;3.17;2.97;;;28.90;51.80;;;;;;4917587;29;20533;-71
2022/07/16 00:41:26;;;;;;;2.80;2.70;;;28.90;51.90;;;;;;4935229;29;21019;-70
2022/07/16 00:44:01;;;;;;;2.83;2.63;;;28.90;52.00;;;;;;4934925;29;20456;-71
2022/07/16 00:46:30;;;;;;;3.60;3.30;;;28.80;52.10;;;;;;4935989;29;20854;-73
2022/07/16 00:48:58;;;;;;;3.10;2.90;;;28.90;52.10;;;;;;4921230;29;20458;-71
2022/07/16 00:51:27;;;;;;;3.33;3.10;;;28.80;52.10;;;;;;4928691;29;20477;-71
2022/07/16 00:53:58;;;;;;;3.20;3.00;;;28.80;51.80;;;;;;4935722;29;20433;-71
2022/07/16 00:56:27;;;;;;;3.03;2.83;;;28.80;51.80;;;;;;4917775;29;20478;-71
2022/07/16 00:58:55;;;;;;;2.80;2.60;;;28.80;51.70;;;;;;4934865;29;20997;-72
2022/07/16 01:01:29;;;;;;;3.20;3.00;;;28.80;51.80;;;;;;4935838;29;20942;-73
2022/07/16 01:03:58;;;;;;;2.70;2.60;;;28.80;51.90;;;;;;4935317;29;20486;-71
2022/07/16 01:06:27;;;;;;;3.27;2.97;;;28.70;51.80;;;;;;4935159;29;20886;-71
2022/07/16 01:08:56;;;;;;;2.80;2.53;;;28.70;51.70;;;;;;4933011;29;20489;-71
2022/07/16 01:11:27;;;;;;;2.93;2.73;;;28.70;51.90;;;;;;4935056;29;20502;-72
2022/07/16 01:13:55;;;;;;;3.00;2.90;;;28.70;51.60;;;;;;4935155;29;20469;-71
2022/07/16 01:16:24;;;;;;;3.57;3.10;;;28.70;51.70;;;;;;4935652;29;20485;-71
2022/07/16 01:18:52;;;;;;;3.57;3.37;;;28.70;51.30;;;;;;4933851;29;20477;-70
2022/07/16 01:21:20;;;;;;;4.10;3.30;;;28.60;51.20;;;;;;4916773;29;20431;-71
2022/07/16 01:23:50;;;;;;;3.00;2.87;;;28.60;51.40;;;;;;4921063;29;20531;-71
2022/07/16 01:26:18;;;;;;;3.00;2.80;;;28.60;51.50;;;;;;4934462;29;20485;-70
2022/07/16 01:28:47;;;;;;;3.53;3.23;;;28.60;51.50;;;;;;4933282;29;20471;-71
2022/07/16 01:31:15;;;;;;;2.97;2.77;;;28.60;51.40;;;;;;4935145;29;20490;-72
2022/07/16 01:33:44;;;;;;;3.37;2.70;;;28.60;51.30;;;;;;4932485;29;20455;-70
2022/07/16 01:36:14;;;;;;;2.40;2.20;;;28.60;51.70;;;;;;4934877;29;20566;-71
2022/07/16 01:38:44;;;;;;;3.40;3.10;;;28.50;51.70;;;;;;4916912;29;20504;-71
2022/07/16 01:41:14;;;;;;;3.00;2.80;;;28.50;51.80;;;;;;4935231;29;20813;-71
2022/07/16 01:43:43;;;;;;;3.47;3.27;;;28.50;51.50;;;;;;4934540;29;20441;-71
2022/07/16 01:46:11;;;;;;;3.87;3.40;;;28.50;51.70;;;;;;4932791;29;20485;-71
2022/07/16 01:48:39;;;;;;;3.40;3.10;;;28.50;51.80;;;;;;4934948;29;20556;-71
2022/07/16 01:51:08;;;;;;;3.13;3.03;;;28.50;51.50;;;;;;4934838;29;20460;-71
2022/07/16 01:53:36;;;;;;;3.10;2.90;;;28.50;51.20;;;;;;4935186;29;20437;-71
2022/07/16 01:56:08;;;;;;;2.93;2.73;;;28.50;51.30;;;;;;4937626;29;20598;-71
2022/07/16 01:58:38;;;;;;;2.77;2.60;;;28.50;51.70;;;;;;4921329;29;20479;-71
2022/07/16 02:01:06;;;;;;;2.93;2.73;;;28.40;51.70;;;;;;4938640;29;20420;-71
2022/07/16 02:03:34;;;;;;;2.80;2.60;;;28.40;51.50;;;;;;4935873;29;20432;-70
2022/07/16 02:06:05;;;;;;;2.70;2.53;;;28.40;51.40;;;;;;4934078;29;20940;-71
2022/07/16 02:08:33;;;;;;;3.60;3.40;;;28.40;51.40;;;;;;4934744;29;20460;-71
2022/07/16 02:11:01;;;;;;;3.57;3.37;;;28.40;51.30;;;;;;4937139;29;20521;-71
2022/07/16 02:13:32;;;;;;;2.47;2.33;;;28.40;51.40;;;;;;4937263;29;20881;-71
2022/07/16 02:16:02;;;;;;;3.47;3.17;;;28.40;51.40;;;;;;4938731;29;20469;-71
2022/07/16 02:18:32;;;;;;;3.13;3.00;;;28.30;51.10;;;;;;4937877;29;20471;-70
2022/07/16 02:21:01;;;;;;;3.03;2.83;;;28.30;51.00;;;;;;4937955;29;20979;-71
2022/07/16 02:23:33;;;;;;;3.50;3.30;;;28.30;51.10;;;;;;4937449;29;20531;-70
2022/07/16 02:26:01;;;;;;;2.90;2.77;;;28.30;51.40;;;;;;4937947;29;20971;-71
2022/07/16 02:28:32;;;;;;;2.93;2.73;;;28.30;51.40;;;;;;4938401;29;20489;-71
2022/07/16 02:31:01;;;;;;;3.40;3.10;;;28.30;51.50;;;;;;4938361;29;20482;-71
2022/07/16 02:33:32;;;;;;;3.80;2.63;;;28.30;51.50;;;;;;4937522;29;20919;-70
2022/07/16 02:36:00;;;;;;;3.07;2.87;;;28.20;51.40;;;;;;4937980;29;20479;-71
2022/07/16 02:38:28;;;;;;;3.27;2.97;;;28.20;51.60;;;;;;4937401;29;20553;-71
2022/07/16 02:40:56;;;;;;;2.80;2.60;;;28.20;51.60;;;;;;4925340;29;20486;-70
2022/07/16 02:43:24;;;;;;;3.63;3.43;;;28.20;51.50;;;;;;4917803;29;20903;-75
2022/07/16 02:45:52;;;;;;;3.03;2.83;;;28.20;51.70;;;;;;4936719;29;20828;-70
2022/07/16 02:48:22;;;;;;;3.47;3.27;;;28.20;51.70;;;;;;4937204;29;20932;-71
2022/07/16 02:50:50;;;;;;;3.10;2.90;;;28.20;51.50;;;;;;4937138;29;20460;-70
2022/07/16 02:53:18;;;;;;;4.13;3.33;;;28.20;51.40;;;;;;4937303;29;20462;-71
2022/07/16 02:55:47;;;;;;;3.20;3.00;;;28.10;51.40;;;;;;4919067;29;20475;-70
2022/07/16 02:58:18;;;;;;;3.30;3.07;;;28.10;51.30;;;;;;4918833;29;20833;-71
2022/07/16 03:00:46;;;;;;;3.20;3.00;;;28.10;51.50;;;;;;4918546;29;20457;-71
2022/07/16 03:03:14;;;;;;;3.40;3.20;;;28.10;51.40;;;;;;4918669;29;20561;-74
2022/07/16 03:05:44;;;;;;;3.60;3.30;;;28.10;51.40;;;;;;4935083;29;20470;-71
2022/07/16 03:08:12;;;;;;;3.20;3.00;;;28.10;51.50;;;;;;4925044;29;20449;-71
2022/07/16 03:10:41;;;;;;;3.30;3.10;;;28.10;51.50;;;;;;4923810;29;20542;-71
2022/07/16 03:13:09;;;;;;;3.57;3.30;;;28.10;51.60;;;;;;4937406;29;20437;-71
2022/07/16 03:15:38;;;;;;;4.20;3.90;;;28.10;51.60;;;;;;4935675;29;20454;-71
2022/07/16 03:18:06;;;;;;;3.90;3.60;;;28.10;51.60;;;;;;4937425;29;20458;-71
2022/07/16 03:20:34;;;;;;;3.70;3.40;;;28.00;51.40;;;;;;4923055;29;20451;-71
2022/07/16 03:23:04;;;;;;;3.10;2.87;;;28.00;51.40;;;;;;4917892;29;20432;-71
2022/07/16 03:25:32;;;;;;;4.20;3.90;;;28.00;51.70;;;;;;4932439;29;20488;-71
2022/07/16 03:28:00;;;;;;;3.93;3.63;;;28.00;51.40;;;;;;4924464;29;20449;-71
2022/07/16 03:30:29;;;;;;;4.60;4.30;;;28.00;51.40;;;;;;4936210;29;20481;-72
2022/07/16 03:32:58;;;;;;;3.30;3.10;;;28.00;51.50;;;;;;4936972;29;20440;-71
2022/07/16 03:35:27;;;;;;;3.80;3.50;;;28.00;51.40;;;;;;4936358;29;20467;-71
2022/07/16 03:40:42;;;;;;;3.23;3.03;;;27.90;51.40;;;;;;4917469;29;20489;-71
2022/07/16 03:43:10;;;;;;;3.30;3.03;;;27.90;51.60;;;;;;4927938;29;20461;-71
2022/07/16 03:45:39;;;;;;;3.47;3.27;;;27.90;51.50;;;;;;4935641;29;20517;-71
2022/07/16 03:48:07;;;;;;;3.57;3.27;;;27.90;51.50;;;;;;4936141;29;20479;-71
2022/07/16 03:50:35;;;;;;;3.50;3.20;;;27.90;51.50;;;;;;4936157;29;20522;-71
2022/07/16 03:53:04;;;;;;;3.80;3.50;;;27.90;51.60;;;;;;4936682;29;20503;-71
2022/07/16 03:55:32;;;;;;;3.70;3.40;;;27.90;51.50;;;;;;4935267;29;20547;-70
2022/07/16 03:58:01;;;;;;;3.70;3.40;;;27.90;51.60;;;;;;4936267;29;20570;-71
2022/07/16 04:00:30;;;;;;;3.90;3.60;;;27.90;51.70;;;;;;4936699;29;20445;-71
2022/07/16 04:03:04;;;;;;;3.80;3.50;;;27.90;51.50;;;;;;4936537;29;20436;-71
2022/07/16 04:05:32;;;;;;;3.17;2.97;;;27.90;51.60;;;;;;4935631;29;20856;-71
2022/07/16 04:08:00;;;;;;;3.37;3.10;;;27.90;51.60;;;;;;4933593;29;20534;-71
2022/07/16 04:10:29;;;;;;;3.50;3.27;;;27.80;51.60;;;;;;4916693;29;20516;-71
2022/07/16 04:12:57;;;;;;;3.43;3.13;;;27.80;51.50;;;;;;4936140;29;20510;-71
2022/07/16 04:15:27;;;;;;;4.07;3.77;;;27.80;51.40;;;;;;4936156;29;20454;-73
2022/07/16 04:17:55;;;;;;;3.90;3.70;;;27.80;51.30;;;;;;4930121;29;20864;-71
2022/07/16 04:20:23;;;;;;;4.03;3.73;;;27.80;51.50;;;;;;4936053;29;20556;-71
2022/07/16 04:22:51;;;;;;;3.67;3.37;;;27.80;51.60;;;;;;4935965;29;20530;-71
2022/07/16 04:25:20;;;;;;;4.07;3.77;;;27.80;51.60;;;;;;4933917;29;20566;-71
2022/07/16 04:27:49;;;;;;;3.07;2.87;;;27.80;51.80;;;;;;4935874;29;20468;-71
2022/07/16 04:30:17;;;;;;;3.60;3.40;;;27.80;51.70;;;;;;4935278;29;20440;-71
2022/07/16 04:32:47;;;;;;;3.03;2.87;;;27.80;51.60;;;;;;4930434;29;20499;-71
2022/07/16 04:35:15;;;;;;;3.90;3.60;;;27.80;51.40;;;;;;4935222;29;20571;-72
2022/07/16 04:37:44;;;;;;;3.33;3.13;;;27.80;51.50;;;;;;4935838;29;20478;-71
2022/07/16 04:40:14;;;;;;;3.80;3.50;;;27.80;51.60;;;;;;4934902;29;20452;-71
2022/07/16 04:42:44;;;;;;;3.50;3.30;;;27.80;51.60;;;;;;4931089;29;20445;-71
2022/07/16 04:45:13;;;;;;;3.73;3.43;;;27.80;52.00;;;;;;4934779;29;20464;-73
2022/07/16 04:47:42;;;;;;;3.30;3.10;;;27.80;51.80;;;;;;4931202;29;20447;-71
2022/07/16 04:50:12;;;;;;;3.30;3.10;;;27.80;51.60;;;;;;4917093;29;21000;-70
2022/07/16 04:52:40;;;;;;;3.13;2.93;;;27.80;51.80;;;;;;4916627;29;21015;-71
2022/07/16 04:55:10;;;;;;;3.37;3.07;;;27.80;51.70;;;;;;4929402;29;20512;-71
2022/07/16 04:57:38;;;;;;;3.60;3.40;;;27.80;51.70;;;;;;4935806;29;20477;-71
2022/07/16 05:00:07;;;;;;;3.43;3.00;;;27.80;51.80;;;;;;4924261;29;20554;-71
2022/07/16 05:05:23;;;;;;;3.80;3.60;;;27.80;51.70;;;;;;4933418;29;20469;-71
2022/07/16 05:07:51;;;;;;;3.80;3.33;;;27.80;51.70;;;;;;4934250;29;20452;-70
2022/07/16 05:10:19;;;;;;;4.20;3.77;;;27.80;51.90;;;;;;4933302;29;21240;-70
2022/07/16 05:12:48;;;;;;;4.10;3.77;;;27.80;51.70;;;;;;4934843;29;20431;-72
2022/07/16 05:15:16;;;;;;;3.40;3.20;;;27.80;51.60;;;;;;4933583;29;20467;-72
2022/07/16 05:17:44;;;;;;;3.27;3.07;;;27.80;51.50;;;;;;4933926;29;20472;-71
2022/07/16 05:20:13;;;;;;;3.57;3.33;;;27.80;51.70;;;;;;4935583;29;20919;-73
2022/07/16 05:22:43;;;;;;;3.53;3.27;;;27.80;51.80;;;;;;4935058;29;20520;-71
2022/07/16 05:25:11;;;;;;;3.90;3.50;;;27.80;51.90;;;;;;4932122;29;20496;-72
2022/07/16 05:27:40;;;;;;;3.10;2.90;;;27.80;51.90;;;;;;4935558;29;20474;-71
2022/07/16 05:30:10;;;;;;;4.07;3.67;;;27.80;51.90;;;;;;4937312;29;20460;-76
2022/07/16 05:32:41;;;;;;;3.30;3.10;;;27.80;51.90;;;;;;4937774;29;20542;-70
2022/07/16 05:35:10;;;;;;;3.00;2.80;;;27.80;52.00;;;;;;4938397;29;20460;-72
2022/07/16 05:37:39;;;;;;;3.30;3.10;;;27.80;52.10;;;;;;4938442;29;20507;-71
2022/07/16 05:40:10;;;;;;;2.97;2.83;;;27.80;52.00;;;;;;4936359;29;20480;-74
2022/07/16 05:42:38;;;;;;;3.40;3.20;;;27.80;51.90;;;;;;4935169;29;20450;-71
2022/07/16 05:45:13;;;;;;;3.60;3.40;;;27.80;52.00;;;;;;4937533;29;20501;-70
2022/07/16 05:47:41;;;;;;;3.10;2.90;;;27.90;52.00;;;;;;4938568;29;20515;-73
2022/07/16 05:50:10;;;;;;;3.40;3.20;;;27.90;52.10;;;;;;4937985;29;20438;-73
2022/07/16 05:52:38;;;;;;;3.23;3.03;;;27.90;52.10;;;;;;4938063;29;20566;-71
2022/07/16 05:55:09;;;;;;;3.70;3.50;;;27.90;52.10;;;;;;4937251;29;20807;-71
2022/07/16 05:57:37;;;;;;;3.90;3.60;;;27.90;52.00;;;;;;4938531;29;20465;-71
2022/07/16 06:00:08;;;;;;;3.90;3.60;;;27.90;52.00;;;;;;4936539;29;20483;-73
2022/07/16 06:02:40;;;;;;;3.40;3.20;;;27.90;52.00;;;;;;4933488;29;20460;-70
2022/07/16 06:05:09;;;;;;;3.50;3.30;;;27.90;52.10;;;;;;4935069;29;20563;-72
2022/07/16 06:07:37;;;;;;;3.67;3.43;;;27.90;52.20;;;;;;4937798;29;20982;-71
2022/07/16 06:10:06;;;;;;;3.67;3.47;;;27.90;52.20;;;;;;4931721;29;20994;-75
2022/07/16 06:12:36;;;;;;;3.20;3.00;;;27.90;52.40;;;;;;4928165;29;20440;-71
2022/07/16 06:15:05;;;;;;;3.10;2.87;;;27.90;52.40;;;;;;4933382;29;20547;-70
2022/07/16 06:17:34;;;;;;;3.80;3.50;;;28.00;52.40;;;;;;4930290;29;20510;-72
2022/07/16 06:20:03;;;;;;;3.50;3.30;;;28.00;52.40;;;;;;4932812;29;20456;-70
2022/07/16 06:22:34;;;;;;;3.50;3.30;;;28.00;52.40;;;;;;4934167;29;20527;-71
2022/07/16 06:25:03;;;;;;;3.60;3.40;;;28.10;52.50;;;;;;4935725;29;21322;-71
2022/07/16 06:27:31;;;;;;;3.20;3.00;;;28.10;52.50;;;;;;4936946;29;20459;-71
2022/07/16 06:30:05;;;;;;;3.47;3.17;;;28.10;52.60;;;;;;4927228;29;20460;-71
2022/07/16 06:32:33;;;;;;;3.83;3.53;;;28.10;52.60;;;;;;4920386;29;20435;-71
2022/07/16 06:35:01;;;;;;;6.40;4.33;;;28.10;52.60;;;;;;4931180;29;20454;-71
2022/07/16 06:37:30;;;;;;;5.63;4.27;;;28.10;52.60;;;;;;4923791;29;20464;-71
2022/07/16 06:40:01;;;;;;;4.53;3.53;;;28.10;52.60;;;;;;4929345;29;20564;-72
2022/07/16 06:42:29;;;;;;;4.27;3.57;;;28.20;52.70;;;;;;4932575;29;20456;-71
2022/07/16 06:44:58;;;;;;;6.67;3.80;;;28.20;52.70;;;;;;4914779;29;20936;-71
2022/07/16 06:47:28;;;;;;;5.83;3.70;;;28.20;52.80;;;;;;4935558;29;20466;-72
2022/07/16 06:49:56;;;;;;;4.33;3.77;;;28.20;52.80;;;;;;4936930;29;20931;-72
2022/07/16 06:52:25;;;;;;;3.30;2.97;;;28.20;52.90;;;;;;4937212;29;20502;-71
2022/07/16 06:54:53;;;;;;;4.00;3.70;;;28.20;52.90;;;;;;4935929;29;20537;-70
2022/07/16 06:57:22;;;;;;;4.00;3.70;;;28.20;52.90;;;;;;4936947;29;20422;-71
2022/07/16 06:59:50;;;;;;;3.77;3.57;;;28.20;53.00;;;;;;4922482;29;20484;-71
2022/07/16 07:02:18;;;;;;;3.60;3.40;;;28.20;53.00;;;;;;4935885;29;20511;-71
2022/07/16 07:04:48;;;;;;;3.53;3.20;;;28.20;53.00;;;;;;4934976;29;20464;-70
2022/07/16 07:07:16;;;;;;;6.50;3.53;;;28.20;53.30;;;;;;4932781;29;20464;-69
2022/07/16 07:09:44;;;;;;;5.97;3.40;;;28.20;53.30;;;;;;4933493;29;20460;-69
2022/07/16 07:12:13;;;;;;;4.20;3.90;;;28.20;53.30;;;;;;4935827;29;20521;-69
2022/07/16 07:14:41;;;;;;;6.37;4.07;;;28.20;53.30;;;;;;4934136;29;20493;-69
2022/07/16 07:17:09;;;;;;;4.03;2.97;;;28.30;53.30;;;;;;4925610;29;20513;-70
2022/07/16 07:19:37;;;;;;;4.50;4.10;;;28.30;53.30;;;;;;4934406;29;20482;-70
2022/07/16 07:22:07;;;;;;;3.17;2.90;;;28.30;53.20;;;;;;4936842;29;20945;-69
2022/07/16 07:24:35;;;;;;;8.43;3.90;;;28.30;53.20;;;;;;4935551;29;20553;-69
2022/07/16 07:27:15;;;;;;;4.20;3.60;;;28.30;53.20;;;;;;4935608;29;20939;-69
2022/07/16 07:29:43;;;;;;;7.57;3.30;;;28.30;53.20;;;;;;4934584;29;20678;-71
2022/07/16 07:32:11;;;;;;;3.60;3.30;;;28.30;53.20;;;;;;4933713;29;20815;-69
2022/07/16 07:34:40;;;;;;;5.07;2.97;;;28.30;53.20;;;;;;4935390;29;20542;-69
2022/07/16 07:37:09;;;;;;;3.67;3.30;;;28.30;53.20;;;;;;4935981;29;20534;-69
2022/07/16 07:39:38;;;;;;;4.13;3.40;;;28.30;53.20;;;;;;4934147;29;20486;-69
2022/07/16 07:42:06;;;;;;;3.53;3.23;;;28.30;53.20;;;;;;4931773;29;20907;-69
2022/07/16 07:44:34;;;;;;;5.30;3.33;;;28.30;53.20;;;;;;4928129;29;20510;-69
2022/07/16 07:47:03;;;;;;;3.33;3.07;;;28.30;53.20;;;;;;4928834;29;20455;-69
2022/07/16 07:49:31;;;;;;;3.50;3.30;;;28.30;53.20;;;;;;4934776;29;20454;-69
2022/07/16 07:51:59;;;;;;;3.03;2.80;;;28.30;53.20;;;;;;4932696;29;20527;-69
2022/07/16 07:54:29;;;;;;;3.40;3.10;;;28.40;53.20;;;;;;4932711;29;20540;-69
2022/07/16 07:56:57;;;;;;;3.20;2.90;;;28.40;53.20;;;;;;4933989;29;20457;-70
2022/07/16 07:59:25;;;;;;;3.67;3.37;;;28.40;53.20;;;;;;4935808;29;20861;-69
2022/07/16 08:01:54;;;;;;;2.97;2.77;;;28.40;53.10;;;;;;4935864;29;20484;-69
2022/07/16 08:04:22;;;;;;;3.63;3.43;;;28.40;52.80;;;;;;4933780;29;20528;-69
2022/07/16 08:06:50;;;;;;;3.50;3.20;;;28.40;53.00;;;;;;4933000;29;20519;-69
2022/07/16 08:09:19;;;;;;;3.07;2.87;;;28.40;53.20;;;;;;4933610;29;20522;-69
2022/07/16 08:11:48;;;;;;;3.40;3.20;;;28.40;53.20;;;;;;4934235;29;20525;-69
2022/07/16 08:14:16;;;;;;;3.60;2.77;;;28.40;53.20;;;;;;4930590;29;20939;-69
2022/07/16 08:16:55;;;;;;;3.13;2.90;;;28.40;53.10;;;;;;4933716;29;20473;-69
2022/07/16 08:19:23;;;;;;;2.80;2.60;;;28.40;53.10;;;;;;4933655;29;20480;-69
2022/07/16 08:21:52;;;;;;;3.20;2.80;;;28.40;53.10;;;;;;4931992;29;20469;-69
2022/07/16 08:27:07;;;;;;;3.30;3.00;;;28.40;53.10;;;;;;4933803;29;20460;-69
2022/07/16 08:29:35;;;;;;;2.80;2.60;;;28.40;53.10;;;;;;4931627;29;20809;-70
2022/07/16 08:32:04;;;;;;;3.20;3.00;;;28.40;53.10;;;;;;4931885;29;20479;-69
2022/07/16 08:34:33;;;;;;;3.03;2.83;;;28.40;53.10;;;;;;4929454;29;20850;-69
2022/07/16 08:37:02;;;;;;;3.80;3.50;;;28.40;53.20;;;;;;4933558;29;20449;-70
2022/07/16 08:39:30;;;;;;;2.83;2.63;;;28.40;53.20;;;;;;4933402;29;20510;-69
2022/07/16 08:41:59;;;;;;;3.10;2.77;;;28.40;53.20;;;;;;4933064;29;21257;-70
2022/07/16 08:44:29;;;;;;;2.60;2.50;;;28.40;53.00;;;;;;4933807;29;20448;-70
2022/07/16 08:46:58;;;;;;;3.07;2.87;;;28.50;53.10;;;;;;4933459;29;20478;-71
2022/07/16 08:49:27;;;;;;;3.63;2.90;;;28.40;53.10;;;;;;4934263;29;20446;-70
2022/07/16 08:51:59;;;;;;;4.03;3.07;;;28.40;53.20;;;;;;4928853;29;20519;-69
2022/07/16 08:54:29;;;;;;;2.80;2.60;;;28.40;53.10;;;;;;4932819;29;20581;-70
2022/07/16 08:57:00;;;;;;;3.07;2.87;;;28.50;53.20;;;;;;4933903;29;20547;-71
2022/07/16 08:59:30;;;;;;;3.27;3.03;;;28.50;53.20;;;;;;4930105;29;20819;-70
2022/07/16 09:01:58;;;;;;;3.20;2.90;;;28.50;53.20;;;;;;4933393;29;20454;-70
2022/07/16 09:04:26;;;;;;;2.70;2.50;;;28.50;53.20;;;;;;4931923;29;20509;-70
2022/07/16 09:06:55;;;;;;;2.50;2.40;;;28.50;53.20;;;;;;4934365;29;20836;-69
2022/07/16 09:09:23;;;;;;;3.03;2.83;;;28.50;53.10;;;;;;4932737;29;20442;-69
2022/07/16 09:11:51;;;;;;;2.60;2.40;;;28.50;53.10;;;;;;4932362;29;20862;-69
2022/07/16 09:14:19;;;;;;;2.83;2.63;;;28.50;53.10;;;;;;4931003;29;20461;-70
2022/07/16 09:16:52;;;;;;;3.23;3.03;;;28.50;53.10;;;;;;4929504;29;20512;-72
2022/07/16 09:19:23;;;;;;;3.27;3.07;;;28.50;53.10;;;;;;4934890;29;20469;-70
2022/07/16 09:22:04;;;;;;;2.73;2.63;;;28.50;53.10;;;;;;4935040;29;20546;-69
2022/07/16 09:24:34;;;;;;;2.47;2.37;;;28.50;53.10;;;;;;4933767;29;20528;-70
2022/07/16 09:27:04;;;;;;;3.10;2.90;;;28.50;53.10;;;;;;4915346;29;20463;-69
2022/07/16 09:29:35;;;;;;;3.07;2.77;;;28.50;53.10;;;;;;4915564;29;20447;-69
2022/07/16 09:32:05;;;;;;;3.77;3.47;;;28.50;53.00;;;;;;4928756;29;20457;-69
2022/07/16 09:34:34;;;;;;;2.67;2.57;;;28.50;53.00;;;;;;4934575;29;20440;-70
2022/07/16 09:37:04;;;;;;;2.70;2.50;;;28.50;53.00;;;;;;4932957;29;20471;-69
2022/07/16 09:39:34;;;;;;;2.87;2.67;;;28.50;53.00;;;;;;4932428;29;20531;-69
2022/07/16 09:42:03;;;;;;;2.90;2.70;;;28.50;53.00;;;;;;4934377;29;20510;-69
2022/07/16 09:44:33;;;;;;;3.03;2.83;;;28.50;52.90;;;;;;4934222;29;20477;-71
2022/07/16 09:47:05;;;;;;;4.80;2.70;;;28.50;52.80;;;;;;4915030;29;20458;-69
2022/07/16 09:49:36;;;;;;;2.73;2.50;;;28.50;52.60;;;;;;4915232;29;20468;-69
2022/07/16 09:52:04;;;;;;;3.03;2.83;;;28.50;52.80;;;;;;4913884;29;20481;-69
2022/07/16 09:54:35;;;;;;;3.10;2.90;;;28.50;52.80;;;;;;4934094;29;20443;-69
2022/07/16 09:57:08;;;;;;;3.00;2.77;;;28.50;52.80;;;;;;4919660;29;21017;-69
2022/07/16 09:59:37;;;;;;;3.20;2.90;;;28.50;52.70;;;;;;4929275;29;20870;-69
2022/07/16 10:02:28;;;;;;;3.30;3.10;;;28.50;52.90;;;;;;4930521;29;20463;-69
2022/07/16 10:04:57;;;;;;;3.07;2.87;;;28.50;52.90;;;;;;4933029;29;20454;-70
2022/07/16 10:07:30;;;;;;;3.03;2.70;;;28.50;52.90;;;;;;4933055;29;20457;-70
2022/07/16 10:09:59;;;;;;;3.37;3.07;;;28.50;52.90;;;;;;4932634;29;20473;-70
2022/07/16 10:12:29;;;;;;;3.37;3.07;;;28.50;52.90;;;;;;4932663;29;20451;-69
2022/07/16 10:15:00;;;;;;;3.27;3.07;;;28.50;52.90;;;;;;4915916;29;20454;-70
2022/07/16 10:17:35;;;;;;;3.03;2.83;;;28.60;52.90;;;;;;4934146;29;20549;-70
2022/07/16 10:20:08;;;;;;;2.30;2.20;;;28.60;52.80;;;;;;4929246;29;20473;-69
2022/07/16 10:22:38;;;;;;;2.50;2.37;;;28.60;52.80;;;;;;4918880;29;20892;-69
2022/07/16 10:25:12;;;;;;;4.30;3.00;;;28.60;52.70;;;;;;4926102;29;20488;-69
2022/07/16 10:27:42;;;;;;;2.80;2.60;;;28.60;52.60;;;;;;4936361;29;20531;-69
2022/07/16 10:30:18;;;;;;;3.30;3.10;;;28.60;52.60;;;;;;4936551;29;20455;-69
2022/07/16 10:33:13;;;;;;;2.90;2.70;;;28.60;52.50;;;;;;4931291;29;20916;-70
2022/07/16 10:35:44;;;;;;;3.20;2.90;;;28.60;52.40;;;;;;4936072;29;20455;-70
2022/07/16 10:38:15;;;;;;;2.90;2.80;;;28.60;52.30;;;;;;4934014;29;20909;-70
2022/07/16 10:41:15;;;;;;;3.27;3.07;;;28.60;52.30;;;;;;4935767;29;20497;-69
2022/07/16 10:44:04;;;;;;;2.67;2.57;;;28.60;52.30;;;;;;4936402;29;20468;-70
2022/07/16 10:46:33;;;;;;;3.23;2.90;;;28.60;52.30;;;;;;4935536;29;20514;-70
2022/07/16 10:49:15;;;;;;;2.80;2.60;;;28.60;52.40;;;;;;4936388;29;20515;-69
2022/07/16 10:51:58;;;;;;;5.97;3.43;;;28.60;52.40;;;;;;4936114;29;20981;-71
2022/07/16 10:54:29;;;;;;;3.07;2.87;;;28.60;52.40;;;;;;4933726;29;20461;-70
2022/07/16 10:57:00;;;;;;;4.40;3.10;;;28.60;52.40;;;;;;4935589;29;20846;-70
2022/07/16 10:59:30;;;;;;;3.23;3.03;;;28.60;52.40;;;;;;4936037;29;20460;-70
2022/07/16 11:02:01;;;;;;;3.83;3.63;;;28.60;52.30;;;;;;4931072;29;20957;-70
2022/07/16 11:04:36;;;;;;;4.70;3.43;;;28.60;52.40;;;;;;4933247;29;20457;-70
2022/07/16 11:07:08;;;;;;;5.67;3.13;;;28.60;52.30;;;;;;4935471;29;20442;-70
2022/07/16 11:09:38;;;;;;;3.33;3.13;;;28.60;52.30;;;;;;4931998;29;20816;-70
2022/07/16 11:12:13;;;;;;;3.20;2.90;;;28.60;52.20;;;;;;4933187;29;20535;-70
2022/07/16 11:14:46;;;;;;;3.40;3.10;;;28.60;52.20;;;;;;4932186;29;20494;-70
2022/07/16 11:17:16;;;;;;;3.73;3.13;;;28.60;52.40;;;;;;4932002;29;20461;-70
2022/07/16 11:19:48;;;;;;;3.40;3.20;;;28.70;52.50;;;;;;4934212;29;20445;-69
2022/07/16 11:22:18;;;;;;;3.40;3.10;;;28.70;52.50;;;;;;4931865;29;20498;-69
2022/07/16 11:24:48;;;;;;;3.30;3.10;;;28.70;52.50;;;;;;4932046;29;20856;-69
2022/07/16 11:27:17;;;;;;;3.33;3.10;;;28.70;52.50;;;;;;4932677;29;20490;-69
2022/07/16 11:29:46;;;;;;;3.43;3.17;;;28.70;52.40;;;;;;4934593;29;20929;-69
2022/07/16 11:32:22;;;;;;;3.30;3.10;;;28.70;52.30;;;;;;4928660;29;20795;-69
2022/07/16 11:34:50;;;;;;;3.40;3.20;;;28.70;51.80;;;;;;4933599;29;20579;-69
2022/07/16 11:37:19;;;;;;;4.77;3.10;;;28.70;51.90;;;;;;4934757;29;20446;-69
2022/07/16 11:39:47;;;;;;;3.10;2.77;;;28.80;52.10;;;;;;4934206;29;20463;-67
2022/07/16 11:42:20;;;;;;;2.63;2.40;;;28.80;52.10;;;;;;4934275;29;20539;-67
2022/07/16 11:44:48;;;;;;;4.43;4.03;;;28.80;52.10;;;;;;4935961;29;20820;-67
2022/07/16 11:47:18;;;;;;;3.30;3.10;;;28.80;52.10;;;;;;4933378;29;20452;-67
2022/07/16 11:49:50;;;;;;;3.07;2.77;;;28.80;51.80;;;;;;4936130;29;20521;-67
2022/07/16 11:52:25;;;;;;;4.23;3.27;;;28.80;52.10;;;;;;4936716;29;20469;-66
2022/07/16 11:54:56;;;;;;;2.90;2.73;;;28.80;52.10;;;;;;4935677;29;20447;-66
2022/07/16 11:57:25;;;;;;;2.67;2.47;;;28.90;52.20;;;;;;4934105;29;20461;-66
2022/07/16 11:59:54;;;;;;;3.63;3.33;;;28.90;52.20;;;;;;4935964;29;20947;-66
2022/07/16 12:02:26;;;;;;;3.37;3.07;;;28.90;52.10;;;;;;4935491;29;20472;-66
2022/07/16 12:04:57;;;;;;;4.90;3.70;;;28.90;52.20;;;;;;4934538;29;20473;-67
2022/07/16 12:07:34;;;;;;;3.43;3.17;;;28.90;52.20;;;;;;4918312;29;20458;-66
2022/07/16 12:10:05;;;;;;;3.40;3.20;;;28.90;52.20;;;;;;4931500;29;20455;-67
2022/07/16 12:12:35;;;;;;;2.90;2.80;;;29.00;52.30;;;;;;4933442;29;20454;-66
2022/07/16 12:15:05;;;;;;;3.33;3.07;;;28.90;52.20;;;;;;4935422;29;20444;-67
2022/07/16 12:17:45;;;;;;;3.83;2.70;;;28.90;52.30;;;;;;4930116;29;21009;-67
2022/07/16 12:20:16;;;;;;;3.13;2.93;;;28.90;52.40;;;;;;4926597;29;20467;-67
2022/07/16 12:22:56;;;;;;;3.57;3.00;;;29.00;52.30;;;;;;4934857;29;20605;-67
2022/07/16 12:25:34;;;;;;;3.27;2.97;;;29.00;52.40;;;;;;4929142;29;20503;-67
2022/07/16 12:28:05;;;;;;;3.23;3.03;;;29.00;52.40;;;;;;4932493;29;20454;-66
2022/07/16 12:30:37;;;;;;;2.87;2.67;;;29.00;52.40;;;;;;4934088;29;20768;-67
2022/07/16 12:33:09;;;;;;;3.37;3.10;;;29.00;52.40;;;;;;4930384;29;20462;-67
2022/07/16 12:35:46;;;;;;;2.90;2.70;;;29.00;52.40;;;;;;4933167;29;20463;-67
2022/07/16 12:38:40;;;;;;;2.63;2.53;;;29.00;52.50;;;;;;4930897;29;20927;-67
2022/07/16 12:41:12;;;;;;;2.77;2.57;;;29.00;52.50;;;;;;4931639;29;20868;-67
2022/07/16 12:43:41;;;;;;;2.80;2.60;;;28.90;52.60;;;;;;4931483;29;20847;-67
2022/07/16 12:46:11;;;;;;;2.47;2.27;;;28.90;52.60;;;;;;4933724;29;20440;-67
2022/07/16 12:48:46;;;;;;;2.80;2.60;;;29.00;52.60;;;;;;4933020;29;20951;-67
2022/07/16 12:51:17;;;;;;;3.10;2.80;;;29.00;52.60;;;;;;4932818;29;20474;-66
2022/07/16 12:53:46;;;;;;;2.90;2.70;;;29.00;52.60;;;;;;4931577;29;20451;-67
2022/07/16 12:59:00;;;;;;;3.60;2.40;;;29.00;52.60;;;;;;4930423;29;20507;-67
2022/07/16 13:01:29;;;;;;;3.20;3.00;;;29.10;52.50;;;;;;4932750;29;20484;-67
2022/07/16 13:03:59;;;;;;;2.80;2.60;;;29.10;52.50;;;;;;4931059;29;20462;-67
2022/07/16 13:06:28;;;;;;;2.73;2.53;;;29.10;52.50;;;;;;4933682;29;20460;-67
2022/07/16 13:08:56;;;;;;;2.37;2.17;;;29.10;52.60;;;;;;4932253;29;20447;-67
2022/07/16 13:11:27;;;;;;;2.90;2.67;;;29.20;52.50;;;;;;4929602;29;20533;-67
2022/07/16 13:13:55;;;;;;;3.10;2.90;;;29.20;52.50;;;;;;4926446;29;20513;-67
2022/07/16 13:16:25;;;;;;;2.73;2.63;;;29.20;52.50;;;;;;4920951;29;20884;-67